Time;durP1;ratioP1;P1;durP2;ratioP2;P2;SDS_P1;SDS_P2;PMS_P1;PMS_P2;Temp;Humidity;BMP_temperature;BMP_pressure;BME280_temperature;BME280_humidity;BME280_pressure;Samples;Min_cycle;Max_cycle;Signal;HPM_P1;HPM_P2
2022/01/22 00:00:09;;;;;;;15.05;6.28;;;;;;;;;;5076366;28;20035;-65
2022/01/22 00:02:35;;;;;;;17.77;5.88;;;;;;;;;;5076287;28;20115;-66
2022/01/22 00:05:02;;;;;;;13.57;6.00;;;;;;;;;;5058252;28;20134;-66
2022/01/22 00:07:29;;;;;;;10.82;5.20;;;;;;;;;;5075905;28;20378;-65
2022/01/22 00:10:00;;;;;;;14.30;5.15;;;;;;;;;;5058142;28;20127;-67
2022/01/22 00:14:59;;;;;;;14.80;5.43;;;;;;;;;;5076101;28;19904;-68
2022/01/22 00:17:25;;;;;;;13.05;5.25;;;;;;;;;;5076055;28;20052;-68
2022/01/22 00:19:52;;;;;;;11.77;5.03;;;;;;;;;;5058005;28;20488;-67
2022/01/22 00:22:22;;;;;;;16.25;5.93;;;;;;;;;;5075974;28;20025;-70
2022/01/22 00:24:53;;;;;;;12.23;4.75;;;;;;;;;;5075880;28;20021;-68
2022/01/22 00:27:20;;;;;;;11.30;4.65;;;;;;;;;;5057964;28;20115;-68
2022/01/22 00:29:46;;;;;;;8.80;4.22;;;;;;;;;;5075848;28;20025;-67
2022/01/22 00:32:13;;;;;;;10.60;4.40;;;;;;;;;;5075488;28;20491;-69
2022/01/22 00:34:39;;;;;;;6.78;3.38;;;;;;;;;;5057017;28;20139;-68
2022/01/22 00:37:05;;;;;;;16.50;4.60;;;;;;;;;;5075002;28;20127;-69
2022/01/22 00:39:33;;;;;;;15.85;4.30;;;;;;;;;;5075879;28;20028;-68
2022/01/22 00:42:00;;;;;;;13.95;4.38;;;;;;;;;;5075623;28;20017;-68
2022/01/22 00:44:26;;;;;;;10.05;3.33;;;;;;;;;;5057549;28;20515;-69
2022/01/22 00:46:52;;;;;;;13.02;3.72;;;;;;;;;;5075492;28;20035;-69
2022/01/22 00:49:19;;;;;;;6.10;3.40;;;;;;;;;;5075467;28;20365;-69
2022/01/22 00:51:45;;;;;;;9.68;3.20;;;;;;;;;;5057371;28;20035;-69
2022/01/22 00:54:12;;;;;;;8.65;3.78;;;;;;;;;;5075328;28;20028;-70
2022/01/22 00:56:38;;;;;;;9.05;3.70;;;;;;;;;;5075394;28;20111;-69
2022/01/22 00:59:04;;;;;;;7.03;3.20;;;;;;;;;;5075267;28;20151;-70
2022/01/22 01:01:30;;;;;;;7.82;2.88;;;;;;;;;;5057195;28;20469;-70
2022/01/22 01:04:01;;;;;;;7.13;3.15;;;;;;;;;;5056851;28;20035;-68
2022/01/22 01:06:27;;;;;;;11.63;3.75;;;;;;;;;;5074814;28;20392;-68
2022/01/22 01:08:54;;;;;;;9.20;3.30;;;;;;;;;;5075082;28;20035;-70
2022/01/22 01:11:23;;;;;;;7.78;3.30;;;;;;;;;;5075053;28;20027;-68
2022/01/22 01:13:55;;;;;;;7.50;3.13;;;;;;;;;;5074965;28;20021;-68
2022/01/22 01:16:44;;;;;;;12.65;3.97;;;;;;;;;;5056979;28;20035;-69
2022/01/22 01:33:16;;;;;;;8.70;3.92;;;;;;;;;;5074659;28;20054;-68
2022/01/22 01:35:42;;;;;;;8.55;3.63;;;;;;;;;;5074232;28;20061;-67
2022/01/22 01:38:08;;;;;;;13.32;4.10;;;;;;;;;;5074512;28;20104;-67
2022/01/22 01:40:39;;;;;;;6.88;3.88;;;;;;;;;;5074500;28;20028;-66
2022/01/22 01:43:13;;;;;;;7.85;3.45;;;;;;;;;;5074519;28;20098;-66
2022/01/22 01:45:39;;;;;;;7.10;3.35;;;;;;;;;;5074509;28;20111;-66
2022/01/22 01:48:15;;;;;;;9.05;3.80;;;;;;;;;;5074038;28;20418;-65
2022/01/22 01:50:43;;;;;;;7.65;3.90;;;;;;;;;;5074351;28;20028;-66
2022/01/22 01:53:21;;;;;;;12.85;4.07;;;;;;;;;;5074240;28;20027;-66
2022/01/22 01:58:17;;;;;;;16.73;5.28;;;;;;;;;;5074118;28;20147;-65
2022/01/22 02:00:44;;;;;;;12.55;4.88;;;;;;;;;;5056206;28;20029;-66
2022/01/22 02:03:13;;;;;;;13.02;5.38;;;;;;;;;;5056078;28;20020;-65
2022/01/22 02:05:39;;;;;;;11.13;4.85;;;;;;;;;;5073879;28;20036;-68
2022/01/22 02:08:06;;;;;;;11.30;5.05;;;;;;;;;;5073968;28;20025;-67
2022/01/22 02:10:36;;;;;;;13.77;5.30;;;;;;;;;;5073886;28;20346;-66
2022/01/22 02:24:05;;;;;;;11.48;5.88;;;;;;;;;;5073451;28;20109;-67
2022/01/22 02:26:31;;;;;;;14.40;6.47;;;;;;;;;;5055536;28;20029;-66
2022/01/22 02:28:57;;;;;;;12.03;5.50;;;;;;;;;;5073541;28;20036;-67
2022/01/22 02:34:00;;;;;;;9.47;4.80;;;;;;;;;;5073485;28;20032;-69
2022/01/22 02:36:35;;;;;;;14.73;5.37;;;;;;;;;;5073053;28;20185;-67
2022/01/22 02:39:19;;;;;;;10.93;4.90;;;;;;;;;;5073463;28;20036;-67
2022/01/22 02:41:47;;;;;;;17.13;4.55;;;;;;;;;;5073409;28;20020;-67
2022/01/22 02:44:32;;;;;;;17.77;4.95;;;;;;;;;;5073349;28;20020;-67
2022/01/22 02:46:59;;;;;;;16.13;5.40;;;;;;;;;;5055170;28;20024;-66
2022/01/22 02:49:26;;;;;;;15.68;5.70;;;;;;;;;;5073381;28;20047;-66
2022/01/22 02:51:52;;;;;;;14.73;5.78;;;;;;;;;;5073246;28;20033;-67
2022/01/22 02:54:18;;;;;;;17.02;5.05;;;;;;;;;;5073199;28;20051;-66
2022/01/22 02:56:44;;;;;;;14.63;5.37;;;;;;;;;;5073000;28;20390;-66
2022/01/22 02:59:11;;;;;;;15.98;5.57;;;;;;;;;;5072545;28;20029;-66
2022/01/22 03:01:37;;;;;;;12.93;5.80;;;;;;;;;;5073159;28;20033;-65
2022/01/22 03:04:04;;;;;;;15.95;6.25;;;;;;;;;;5073108;28;20048;-65
2022/01/22 03:06:30;;;;;;;13.63;5.93;;;;;;;;;;5054957;28;20028;-66
2022/01/22 03:08:57;;;;;;;13.18;6.07;;;;;;;;;;5073067;28;20040;-64
2022/01/22 03:11:29;;;;;;;10.80;5.35;;;;;;;;;;5073019;28;20024;-64
2022/01/22 03:17:08;;;;;;;9.10;4.80;;;;;;;;;;5072784;28;20326;-65
2022/01/22 03:22:29;;;;;;;13.50;5.03;;;;;;;;;;5072711;28;20028;-67
2022/01/22 03:27:40;;;;;;;12.75;4.40;;;;;;;;;;5072638;28;20039;-66
2022/01/22 03:30:07;;;;;;;10.20;4.33;;;;;;;;;;5072564;28;20055;-66
2022/01/22 03:32:40;;;;;;;11.50;4.40;;;;;;;;;;5054525;28;20108;-67
2022/01/22 03:35:12;;;;;;;10.87;4.60;;;;;;;;;;5054545;28;20075;-68
2022/01/22 03:37:40;;;;;;;8.40;3.53;;;;;;;;;;5072814;28;20477;-68
2022/01/22 03:40:07;;;;;;;12.30;4.37;;;;;;;;;;5054762;28;20044;-69
2022/01/22 03:42:34;;;;;;;11.67;3.97;;;;;;;;;;5071869;28;20534;-68
2022/01/22 03:45:02;;;;;;;7.80;3.87;;;;;;;;;;5054614;28;20460;-68
2022/01/22 03:47:28;;;;;;;10.35;3.85;;;;;;;;;;5072726;28;20067;-68
2022/01/22 03:49:54;;;;;;;10.35;4.30;;;;;;;;;;5072708;28;20036;-68
2022/01/22 03:52:20;;;;;;;8.63;3.50;;;;;;;;;;5072651;28;20064;-66
2022/01/22 03:54:47;;;;;;;8.30;3.67;;;;;;;;;;5072613;28;20423;-68
2022/01/22 03:57:13;;;;;;;8.37;3.40;;;;;;;;;;5054583;28;20082;-64
2022/01/22 03:59:39;;;;;;;11.20;3.67;;;;;;;;;;5072552;28;20052;-64
2022/01/22 04:04:55;;;;;;;11.90;3.83;;;;;;;;;;5072587;28;20125;-64
2022/01/22 04:09:54;;;;;;;9.17;3.70;;;;;;;;;;5073559;28;20036;-65
2022/01/22 04:12:28;;;;;;;9.13;3.90;;;;;;;;;;5076140;28;20034;-65
2022/01/22 04:15:00;;;;;;;6.33;3.60;;;;;;;;;;5076142;28;20028;-67
2022/01/22 04:25:34;;;;;;;12.07;5.15;;;;;;;;;;5075815;28;20106;-66
2022/01/22 04:28:01;;;;;;;10.82;5.18;;;;;;;;;;5057917;28;20036;-65
2022/01/22 04:30:28;;;;;;;9.60;4.13;;;;;;;;;;5076074;28;20564;-66
2022/01/22 04:32:54;;;;;;;8.20;3.60;;;;;;;;;;5075796;28;20457;-68
2022/01/22 04:35:24;;;;;;;7.80;3.92;;;;;;;;;;5075581;28;20048;-67
2022/01/22 04:37:50;;;;;;;13.18;4.97;;;;;;;;;;5057697;28;20392;-65
2022/01/22 04:40:17;;;;;;;13.23;4.30;;;;;;;;;;5075674;28;20025;-67
2022/01/22 04:42:43;;;;;;;8.25;4.43;;;;;;;;;;5057397;28;20021;-65
2022/01/22 04:45:30;;;;;;;10.50;4.07;;;;;;;;;;5075530;28;20032;-65
2022/01/22 04:48:51;;;;;;;7.55;3.65;;;;;;;;;;5075553;28;20035;-65
2022/01/22 04:55:54;;;;;;;11.23;4.75;;;;;;;;;;5075328;28;20046;-66
2022/01/22 04:58:20;;;;;;;9.73;4.13;;;;;;;;;;5057247;28;20128;-66
2022/01/22 05:00:47;;;;;;;27.20;9.68;;;;;;;;;;5056944;28;20063;-66
2022/01/22 05:03:15;;;;;;;24.80;7.82;;;;;;;;;;5075200;28;20115;-65
2022/01/22 05:05:42;;;;;;;4.88;2.75;;;;;;;;;;5057063;28;20029;-68
2022/01/22 05:08:08;;;;;;;8.60;2.93;;;;;;;;;;5074783;28;20489;-66
2022/01/22 05:10:34;;;;;;;8.55;2.97;;;;;;;;;;5075291;28;20116;-66
2022/01/22 05:13:00;;;;;;;6.07;3.05;;;;;;;;;;5057009;28;20064;-68
2022/01/22 05:15:27;;;;;;;7.95;2.83;;;;;;;;;;5074902;28;20033;-68
2022/01/22 05:17:53;;;;;;;4.73;2.50;;;;;;;;;;5074838;28;20029;-69
2022/01/22 05:20:25;;;;;;;6.07;2.75;;;;;;;;;;5074540;28;20365;-68
2022/01/22 05:23:04;;;;;;;8.10;2.47;;;;;;;;;;5074191;28;20024;-70
2022/01/22 05:25:44;;;;;;;8.93;4.53;;;;;;;;;;5074733;28;20021;-67
2022/01/22 05:38:35;;;;;;;8.13;3.28;;;;;;;;;;5074618;28;20082;-67
2022/01/22 05:41:01;;;;;;;9.02;3.03;;;;;;;;;;5074541;28;20103;-69
2022/01/22 05:43:28;;;;;;;10.88;4.80;;;;;;;;;;5074484;28;20086;-69
2022/01/22 05:45:54;;;;;;;11.27;4.75;;;;;;;;;;5056385;28;20064;-71
2022/01/22 05:48:20;;;;;;;9.38;3.78;;;;;;;;;;5074362;28;20024;-70
2022/01/22 05:51:00;;;;;;;9.18;3.70;;;;;;;;;;5074297;28;20047;-69
2022/01/22 06:01:12;;;;;;;14.55;6.10;;;;;;;;;;5073889;28;20031;-67
2022/01/22 06:03:39;;;;;;;9.63;4.88;;;;;;;;;;5073732;28;20388;-70
2022/01/22 06:06:05;;;;;;;10.43;3.78;;;;;;;;;;5055919;28;20060;-67
2022/01/22 06:08:34;;;;;;;13.45;3.70;;;;;;;;;;5074282;28;20028;-69
2022/01/22 06:11:10;;;;;;;13.40;3.70;;;;;;;;;;5055592;28;20032;-70
2022/01/22 06:13:46;;;;;;;9.70;3.55;;;;;;;;;;5073951;28;20025;-69
2022/01/22 06:16:17;;;;;;;12.63;4.43;;;;;;;;;;5055832;28;20032;-66
2022/01/22 06:18:43;;;;;;;9.83;3.70;;;;;;;;;;5073576;28;20480;-69
2022/01/22 06:21:10;;;;;;;8.55;4.05;;;;;;;;;;5055673;28;20250;-69
2022/01/22 06:23:37;;;;;;;10.15;4.70;;;;;;;;;;5073971;28;20508;-68
2022/01/22 06:26:04;;;;;;;12.10;5.28;;;;;;;;;;5073537;28;20055;-70
2022/01/22 06:28:31;;;;;;;13.20;5.53;;;;;;;;;;5073612;28;20033;-67
2022/01/22 06:30:58;;;;;;;17.45;8.73;;;;;;;;;;5073505;28;20047;-65
2022/01/22 06:33:24;;;;;;;15.02;6.95;;;;;;;;;;5072627;28;20104;-71
2022/01/22 06:35:50;;;;;;;17.77;6.75;;;;;;;;;;5073021;28;20053;-67
2022/01/22 06:38:17;;;;;;;20.25;8.63;;;;;;;;;;5073403;28;20025;-67
2022/01/22 06:43:28;;;;;;;20.48;9.15;;;;;;;;;;5073172;28;20035;-68
2022/01/22 06:45:54;;;;;;;14.70;6.40;;;;;;;;;;5055246;28;20078;-70
2022/01/22 06:48:21;;;;;;;12.23;6.13;;;;;;;;;;5073273;28;20032;-68
2022/01/22 06:50:47;;;;;;;15.68;7.35;;;;;;;;;;5073186;28;20029;-67
2022/01/22 06:53:14;;;;;;;13.90;6.38;;;;;;;;;;5073185;28;20021;-67
2022/01/22 06:58:06;;;;;;;27.83;12.57;;;;;;;;;;5073200;28;20024;-71
2022/01/22 07:00:32;;;;;;;17.52;7.10;;;;;;;;;;5073113;28;20074;-68
2022/01/22 07:02:59;;;;;;;22.80;7.45;;;;;;;;;;5055020;28;20485;-70
2022/01/22 07:05:25;;;;;;;10.63;6.13;;;;;;;;;;5072979;28;20040;-65
2022/01/22 07:07:51;;;;;;;13.52;6.47;;;;;;;;;;5073332;28;20035;-66
2022/01/22 07:10:17;;;;;;;14.18;6.10;;;;;;;;;;5055028;28;20033;-64
2022/01/22 07:12:44;;;;;;;18.85;6.65;;;;;;;;;;5073022;28;20031;-64
2022/01/22 07:15:10;;;;;;;13.02;5.60;;;;;;;;;;5054926;28;20116;-67
2022/01/22 07:17:38;;;;;;;16.98;6.03;;;;;;;;;;5073278;28;20041;-67
2022/01/22 07:20:06;;;;;;;14.95;6.82;;;;;;;;;;5072981;28;20107;-66
2022/01/22 07:22:47;;;;;;;17.13;8.50;;;;;;;;;;5072868;28;20062;-66
2022/01/22 07:25:13;;;;;;;13.57;7.03;;;;;;;;;;5054849;28;20381;-65
2022/01/22 07:27:39;;;;;;;23.67;9.73;;;;;;;;;;5072872;28;20025;-64
2022/01/22 07:30:06;;;;;;;20.25;7.63;;;;;;;;;;5072950;28;20013;-65
2022/01/22 07:32:36;;;;;;;13.93;8.43;;;;;;;;;;5054748;28;20043;-68
2022/01/22 07:35:03;;;;;;;15.48;8.27;;;;;;;;;;5049147;28;20083;-66
2022/01/22 07:37:30;;;;;;;23.80;7.97;;;;;;;;;;5052731;28;20091;-69
2022/01/22 07:39:56;;;;;;;19.35;8.18;;;;;;;;;;5052642;28;20118;-67
2022/01/22 07:42:22;;;;;;;18.38;8.30;;;;;;;;;;5052603;28;20180;-68
2022/01/22 07:44:48;;;;;;;22.55;9.93;;;;;;;;;;5051210;28;20033;-65
2022/01/22 07:47:14;;;;;;;24.17;9.68;;;;;;;;;;5056473;28;20071;-65
2022/01/22 07:49:41;;;;;;;21.48;10.05;;;;;;;;;;5056656;28;20519;-64
2022/01/22 07:52:07;;;;;;;23.02;8.75;;;;;;;;;;5056502;28;20104;-65
2022/01/22 07:54:34;;;;;;;19.27;9.35;;;;;;;;;;5056537;28;20067;-65
2022/01/22 07:57:02;;;;;;;33.92;11.25;;;;;;;;;;5056368;28;20113;-65
2022/01/22 07:59:29;;;;;;;23.58;12.02;;;;;;;;;;5056011;28;20029;-63
2022/01/22 08:01:56;;;;;;;16.23;8.88;;;;;;;;;;5055220;28;20032;-65
2022/01/22 08:04:25;;;;;;;17.95;9.95;;;;;;;;;;5056229;28;20083;-64
2022/01/22 08:06:52;;;;;;;57.35;23.13;;;;;;;;;;5056102;28;20461;-65
2022/01/22 08:09:19;;;;;;;25.13;11.05;;;;;;;;;;5056197;28;20029;-68
2022/01/22 08:11:45;;;;;;;28.02;12.00;;;;;;;;;;5054488;28;20123;-66
2022/01/22 08:14:11;;;;;;;62.95;22.80;;;;;;;;;;5056019;28;20037;-65
2022/01/22 08:16:38;;;;;;;29.10;13.65;;;;;;;;;;5056053;28;20130;-67
2022/01/22 08:19:05;;;;;;;39.03;13.60;;;;;;;;;;5056138;28;20047;-65
2022/01/22 08:21:31;;;;;;;52.00;15.88;;;;;;;;;;5055984;28;20116;-65
2022/01/22 08:23:57;;;;;;;52.78;19.83;;;;;;;;;;5054615;28;20116;-65
2022/01/22 08:26:28;;;;;;;29.70;8.15;;;;;;;;;;5055676;28;20056;-68
2022/01/22 08:28:55;;;;;;;22.33;9.07;;;;;;;;;;5055889;28;20029;-65
2022/01/22 08:31:39;;;;;;;26.02;11.75;;;;;;;;;;5053247;28;20473;-65
2022/01/22 08:36:52;;;;;;;33.75;14.15;;;;;;;;;;5055336;28;20530;-67
2022/01/22 08:39:20;;;;;;;39.47;15.75;;;;;;;;;;5054302;28;20052;-67
2022/01/22 08:41:46;;;;;;;23.15;9.45;;;;;;;;;;5054141;28;20025;-65
2022/01/22 08:44:13;;;;;;;25.70;8.80;;;;;;;;;;5054152;28;20025;-66
2022/01/22 08:46:39;;;;;;;21.67;9.23;;;;;;;;;;5053015;28;20436;-65
2022/01/22 08:49:05;;;;;;;24.05;9.70;;;;;;;;;;5054995;28;20045;-66
2022/01/22 08:51:33;;;;;;;33.03;15.95;;;;;;;;;;5055082;28;20104;-69
2022/01/22 08:54:03;;;;;;;21.95;9.98;;;;;;;;;;5054838;28;20363;-66
2022/01/22 08:56:29;;;;;;;28.67;12.93;;;;;;;;;;5052811;28;20079;-66
2022/01/22 08:58:55;;;;;;;30.25;15.38;;;;;;;;;;5053109;28;20029;-68
2022/01/22 09:01:22;;;;;;;30.05;13.57;;;;;;;;;;5053419;28;20108;-65
2022/01/22 09:03:49;;;;;;;27.90;12.35;;;;;;;;;;5053628;28;20029;-64
2022/01/22 09:06:17;;;;;;;27.27;11.95;;;;;;;;;;5054449;28;20400;-68
2022/01/22 09:08:45;;;;;;;27.48;12.70;;;;;;;;;;5054591;28;20064;-67
2022/01/22 09:11:11;;;;;;;17.77;9.23;;;;;;;;;;5054999;28;20107;-67
2022/01/22 09:13:37;;;;;;;15.27;7.63;;;;;;;;;;5053644;28;20060;-68
2022/01/22 09:16:03;;;;;;;11.77;7.35;;;;;;;;;;5054520;28;20037;-67
2022/01/22 09:18:30;;;;;;;13.43;7.72;;;;;;;;;;5054300;28;20568;-68
2022/01/22 09:21:04;;;;;;;11.52;6.38;;;;;;;;;;5051511;28;20021;-69
2022/01/22 09:23:31;;;;;;;11.93;7.47;;;;;;;;;;5053215;28;20031;-65
2022/01/22 09:25:58;;;;;;;16.02;7.93;;;;;;;;;;5054508;28;20307;-66
2022/01/22 09:28:25;;;;;;;17.73;8.20;;;;;;;;;;5054562;28;20032;-67
2022/01/22 09:30:51;;;;;;;15.05;7.75;;;;;;;;;;5054318;28;20024;-68
2022/01/22 09:33:17;;;;;;;19.88;7.68;;;;;;;;;;5054572;28;20115;-67
2022/01/22 09:35:44;;;;;;;14.52;7.93;;;;;;;;;;5054055;28;20053;-65
2022/01/22 09:38:10;;;;;;;18.20;7.40;;;;;;;;;;5054448;28;20108;-66
2022/01/22 09:40:36;;;;;;;17.63;8.65;;;;;;;;;;5054382;28;20082;-67
2022/01/22 09:43:03;;;;;;;17.27;9.00;;;;;;;;;;5054182;28;20027;-68
2022/01/22 09:45:29;;;;;;;18.33;9.55;;;;;;;;;;5053711;28;20043;-67
2022/01/22 09:47:58;;;;;;;20.85;10.32;;;;;;;;;;5034864;28;20154;-66
2022/01/22 09:50:25;;;;;;;19.27;9.52;;;;;;;;;;5053548;28;20053;-64
2022/01/22 09:52:51;;;;;;;22.08;12.52;;;;;;;;;;5052770;28;20043;-65
2022/01/22 09:55:18;;;;;;;16.95;9.10;;;;;;;;;;5034732;28;20116;-69
2022/01/22 09:57:45;;;;;;;15.65;8.77;;;;;;;;;;5052855;28;20021;-66
2022/01/22 10:00:12;;;;;;;16.10;9.40;;;;;;;;;;5052615;28;20036;-68
2022/01/22 10:02:49;;;;;;;19.55;8.85;;;;;;;;;;5034581;28;20052;-68
2022/01/22 10:05:35;;;;;;;16.25;8.10;;;;;;;;;;5051127;28;20028;-69
2022/01/22 10:08:20;;;;;;;19.67;8.65;;;;;;;;;;5054064;28;20025;-65
2022/01/22 10:10:47;;;;;;;13.55;8.18;;;;;;;;;;5054063;28;20049;-68
2022/01/22 10:13:13;;;;;;;12.82;6.82;;;;;;;;;;5053855;28;20083;-68
2022/01/22 10:15:39;;;;;;;16.10;10.00;;;;;;;;;;5035884;28;20025;-68
2022/01/22 10:18:06;;;;;;;11.57;6.22;;;;;;;;;;5053489;28;20469;-67
2022/01/22 10:20:36;;;;;;;8.55;5.78;;;;;;;;;;5053718;28;20500;-66
2022/01/22 10:23:05;;;;;;;14.55;8.10;;;;;;;;;;5053377;28;20437;-66
2022/01/22 10:25:39;;;;;;;9.90;6.32;;;;;;;;;;5035622;28;20036;-66
2022/01/22 10:28:06;;;;;;;15.80;8.68;;;;;;;;;;5053601;28;20017;-69
2022/01/22 10:30:38;;;;;;;18.65;9.95;;;;;;;;;;5053582;28;20021;-66
2022/01/22 10:35:47;;;;;;;16.90;9.23;;;;;;;;;;5053055;28;20057;-65
2022/01/22 10:38:16;;;;;;;24.40;12.05;;;;;;;;;;5053404;28;20031;-66
2022/01/22 10:40:42;;;;;;;19.83;10.27;;;;;;;;;;5053730;28;20024;-65
2022/01/22 10:43:21;;;;;;;21.50;10.85;;;;;;;;;;5053336;28;20365;-65
2022/01/22 10:48:43;;;;;;;18.70;9.93;;;;;;;;;;5053195;28;20120;-67
2022/01/22 10:51:14;;;;;;;35.97;17.75;;;;;;;;;;5053326;28;20033;-68
2022/01/22 10:53:51;;;;;;;24.52;11.43;;;;;;;;;;5035204;28;20452;-65
2022/01/22 10:56:19;;;;;;;30.02;14.07;;;;;;;;;;5053128;28;20029;-67
2022/01/22 10:58:56;;;;;;;36.08;17.88;;;;;;;;;;5035166;28;20466;-65
2022/01/22 11:01:24;;;;;;;38.35;17.30;;;;;;;;;;5033453;28;20075;-65
2022/01/22 11:04:07;;;;;;;48.25;21.40;;;;;;;;;;5034411;28;20043;-67
2022/01/22 11:06:33;;;;;;;28.80;15.80;;;;;;;;;;5052913;28;20068;-65
2022/01/22 11:08:59;;;;;;;29.60;15.13;;;;;;;;;;5052858;28;20028;-66
2022/01/22 11:11:26;;;;;;;28.70;14.30;;;;;;;;;;5052773;28;20021;-68
2022/01/22 11:13:52;;;;;;;26.20;13.60;;;;;;;;;;5052805;28;20029;-64
2022/01/22 11:16:19;;;;;;;34.47;18.15;;;;;;;;;;5052550;28;20032;-65
2022/01/22 11:18:48;;;;;;;29.08;13.02;;;;;;;;;;5052571;28;20454;-65
2022/01/22 11:21:15;;;;;;;29.33;12.77;;;;;;;;;;5034476;28;20527;-65
2022/01/22 11:23:42;;;;;;;24.40;10.85;;;;;;;;;;5034839;28;20052;-64
2022/01/22 11:26:09;;;;;;;18.73;10.50;;;;;;;;;;5052857;28;20060;-66
2022/01/22 11:28:37;;;;;;;17.63;10.30;;;;;;;;;;5052779;28;20028;-67
2022/01/22 11:31:03;;;;;;;23.23;11.82;;;;;;;;;;5052735;28;20025;-66
2022/01/22 11:33:32;;;;;;;21.25;10.75;;;;;;;;;;5052530;28;20111;-66
2022/01/22 11:36:02;;;;;;;21.80;11.07;;;;;;;;;;5067908;28;20056;-67
2022/01/22 11:38:30;;;;;;;20.77;10.32;;;;;;;;;;5054755;28;20373;-66
2022/01/22 11:41:07;;;;;;;22.77;13.48;;;;;;;;;;5072630;28;20021;-66
2022/01/22 11:44:16;;;;;;;40.42;21.23;;;;;;;;;;5072561;28;20469;-65
2022/01/22 11:46:53;;;;;;;25.48;13.82;;;;;;;;;;5072531;28;20025;-66
2022/01/22 11:49:26;;;;;;;28.77;14.77;;;;;;;;;;5054503;28;20380;-68
2022/01/22 11:52:12;;;;;;;32.00;16.27;;;;;;;;;;5054488;28;20024;-67
2022/01/22 11:54:59;;;;;;;32.40;14.77;;;;;;;;;;5053379;28;20034;-66
2022/01/22 11:57:27;;;;;;;27.92;15.57;;;;;;;;;;5072412;28;20107;-68
2022/01/22 12:00:26;;;;;;;36.97;17.70;;;;;;;;;;5072451;28;20031;-66
2022/01/22 12:03:04;;;;;;;36.15;19.50;;;;;;;;;;4971242;28;20039;-68
2022/01/22 12:05:31;;;;;;;31.67;17.13;;;;;;;;;;4954609;28;20038;-69
2022/01/22 12:07:58;;;;;;;40.65;17.98;;;;;;;;;;4971351;28;20035;-68
2022/01/22 12:10:37;;;;;;;279.40;126.88;;;;;;;;;;4950656;28;20031;-68
2022/01/22 12:16:07;;;;;;;34.55;17.45;;;;;;;;;;4971372;28;20038;-67
2022/01/22 12:18:35;;;;;;;40.47;20.58;;;;;;;;;;4971176;28;20035;-68
2022/01/22 12:23:30;;;;;;;46.67;25.75;;;;;;;;;;4971073;28;20130;-67
2022/01/22 12:25:57;;;;;;;45.88;26.20;;;;;;;;;;4954809;28;20050;-69
2022/01/22 12:28:41;;;;;;;39.03;19.17;;;;;;;;;;4971214;28;20427;-68
2022/01/22 12:31:08;;;;;;;35.97;18.08;;;;;;;;;;4971182;28;20126;-67
2022/01/22 12:33:35;;;;;;;36.50;18.92;;;;;;;;;;4958403;28;20023;-65
2022/01/22 12:36:03;;;;;;;39.08;20.13;;;;;;;;;;4974446;28;20098;-70
2022/01/22 12:38:36;;;;;;;66.53;31.23;;;;;;;;;;5026960;28;20152;-69
2022/01/22 12:44:05;;;;;;;32.00;16.55;;;;;;;;;;5075439;28;20040;-67
2022/01/22 12:46:32;;;;;;;37.88;21.33;;;;;;;;;;5057527;28;20472;-66
2022/01/22 12:48:58;;;;;;;22.63;12.20;;;;;;;;;;5057316;28;20034;-68
2022/01/22 12:51:27;;;;;;;45.70;20.33;;;;;;;;;;5075523;28;20052;-65
2022/01/22 12:53:54;;;;;;;53.88;20.10;;;;;;;;;;5075454;28;20025;-65
2022/01/22 12:59:01;;;;;;;52.83;25.02;;;;;;;;;;5075391;28;20072;-64
2022/01/22 13:01:29;;;;;;;29.98;16.17;;;;;;;;;;5057317;28;20461;-63
2022/01/22 13:03:56;;;;;;;25.45;13.55;;;;;;;;;;5075169;28;20016;-63
2022/01/22 13:06:25;;;;;;;31.95;15.90;;;;;;;;;;5057103;28;20032;-63
2022/01/22 13:08:54;;;;;;;15.15;9.23;;;;;;;;;;5075132;28;20028;-63
2022/01/22 13:11:24;;;;;;;16.83;9.68;;;;;;;;;;5075147;28;20099;-63
2022/01/22 13:13:51;;;;;;;20.65;11.85;;;;;;;;;;5075306;28;20025;-64
2022/01/22 13:16:17;;;;;;;16.35;10.45;;;;;;;;;;5074987;28;20488;-63
2022/01/22 13:18:50;;;;;;;17.85;10.57;;;;;;;;;;5074956;28;20024;-64
2022/01/22 13:21:17;;;;;;;15.40;9.88;;;;;;;;;;5074916;28;20024;-63
2022/01/22 13:23:43;;;;;;;15.07;9.13;;;;;;;;;;5074774;28;20029;-65
2022/01/22 13:26:10;;;;;;;29.58;15.10;;;;;;;;;;5074759;28;20040;-64
2022/01/22 13:28:38;;;;;;;116.80;48.33;;;;;;;;;;5074794;28;20066;-65
2022/01/22 13:31:11;;;;;;;48.63;25.65;;;;;;;;;;5056660;28;20032;-67
2022/01/22 13:34:23;;;;;;;53.50;27.25;;;;;;;;;;5074709;28;20052;-64
2022/01/22 13:36:47;;;;;;;40.92;23.67;;;;;;;;;;5069038;28;20734;-65
2022/01/22 13:49:54;;;;;;;66.10;34.95;;;;;;;;;;5074151;28;20040;-66
2022/01/22 13:52:22;;;;;;;125.28;49.80;;;;;;;;;;5074060;28;20448;-65
2022/01/22 13:54:50;;;;;;;118.57;48.53;;;;;;;;;;5074261;28;20040;-66
2022/01/22 13:57:18;;;;;;;113.55;43.13;;;;;;;;;;5070753;28;20028;-65
2022/01/22 13:59:45;;;;;;;104.93;38.13;;;;;;;;;;5074113;28;20059;-67
2022/01/22 14:02:50;;;;;;;63.40;26.63;;;;;;;;;;5074107;28;20547;-66
2022/01/22 14:05:04;;;;;;;135.93;51.75;;;;;;;;;;5072830;28;20062;-69
2022/01/22 14:07:42;;;;;;;64.43;27.48;;;;;;;;;;5055925;28;20028;-63
2022/01/22 14:10:09;;;;;;;86.55;36.97;;;;;;;;;;5056017;28;20499;-67
2022/01/22 14:12:40;;;;;;;74.65;35.22;;;;;;;;;;5055893;28;20024;-67
2022/01/22 14:15:12;;;;;;;68.75;33.42;;;;;;;;;;5073103;28;20032;-67
2022/01/22 14:17:54;;;;;;;62.83;28.15;;;;;;;;;;5073677;28;20066;-67
2022/01/22 14:20:24;;;;;;;130.32;52.30;;;;;;;;;;5073760;28;20025;-66
2022/01/22 14:22:55;;;;;;;72.63;34.35;;;;;;;;;;5055864;28;20027;-67
2022/01/22 14:25:22;;;;;;;91.35;41.42;;;;;;;;;;5073623;28;20016;-67
2022/01/22 14:27:59;;;;;;;49.13;23.08;;;;;;;;;;5073878;28;20029;-67
2022/01/22 14:30:31;;;;;;;40.42;21.17;;;;;;;;;;5073595;28;20118;-66
2022/01/22 14:32:58;;;;;;;48.67;23.55;;;;;;;;;;5073565;28;20062;-67
2022/01/22 14:35:24;;;;;;;31.27;18.10;;;;;;;;;;5073196;28;20512;-66
2022/01/22 14:37:54;;;;;;;30.25;17.63;;;;;;;;;;5055154;28;20029;-67
2022/01/22 14:45:57;;;;;;;23.63;14.05;;;;;;;;;;5073077;28;20062;-66
2022/01/22 14:48:25;;;;;;;23.80;14.50;;;;;;;;;;5073319;28;20025;-66
2022/01/22 14:50:51;;;;;;;25.20;15.70;;;;;;;;;;5055302;28;20115;-66
2022/01/22 14:53:17;;;;;;;26.60;14.93;;;;;;;;;;5055245;28;20384;-68
2022/01/22 14:55:59;;;;;;;28.88;16.40;;;;;;;;;;5051314;28;20127;-67
2022/01/22 14:58:25;;;;;;;28.52;17.33;;;;;;;;;;5033323;28;20111;-68
2022/01/22 15:00:51;;;;;;;24.20;13.60;;;;;;;;;;5033271;28;20025;-64
2022/01/22 15:03:17;;;;;;;35.08;21.75;;;;;;;;;;5033189;28;20057;-68
2022/01/22 15:05:44;;;;;;;42.28;25.13;;;;;;;;;;5015367;28;20455;-67
2022/01/22 15:08:10;;;;;;;19.23;12.93;;;;;;;;;;5015390;28;20022;-65
2022/01/22 15:10:36;;;;;;;16.52;10.73;;;;;;;;;;5033139;28;20060;-66
2022/01/22 15:13:03;;;;;;;15.98;11.05;;;;;;;;;;5015431;28;20369;-69
2022/01/22 15:15:40;;;;;;;18.17;12.90;;;;;;;;;;5033216;28;20108;-66
2022/01/22 15:18:11;;;;;;;28.08;15.82;;;;;;;;;;5033059;28;20472;-70
2022/01/22 15:20:37;;;;;;;25.92;16.83;;;;;;;;;;5033083;28;20374;-66
2022/01/22 15:23:04;;;;;;;27.95;15.30;;;;;;;;;;5032942;28;20021;-65
2022/01/22 15:25:30;;;;;;;29.20;16.27;;;;;;;;;;5032871;28;20068;-67
2022/01/22 15:27:56;;;;;;;21.58;12.38;;;;;;;;;;5034651;28;20012;-64
2022/01/22 15:30:30;;;;;;;22.15;13.25;;;;;;;;;;5052132;28;20016;-68
2022/01/22 15:33:18;;;;;;;27.20;14.82;;;;;;;;;;5034677;28;20028;-68
2022/01/22 15:35:44;;;;;;;27.63;16.30;;;;;;;;;;5044287;28;20060;-68
2022/01/22 15:38:11;;;;;;;26.48;15.63;;;;;;;;;;5052947;28;20525;-64
2022/01/22 15:40:37;;;;;;;25.88;15.20;;;;;;;;;;5051339;28;20029;-68
2022/01/22 15:43:04;;;;;;;38.00;19.73;;;;;;;;;;5052639;28;20251;-66
2022/01/22 15:45:33;;;;;;;41.97;22.60;;;;;;;;;;5051265;28;20094;-66
2022/01/22 15:48:00;;;;;;;37.00;19.45;;;;;;;;;;5052466;28;20017;-65
2022/01/22 15:50:26;;;;;;;35.45;21.50;;;;;;;;;;5051118;28;20496;-67
2022/01/22 15:52:52;;;;;;;46.83;25.65;;;;;;;;;;5050897;28;20466;-67
2022/01/22 15:55:19;;;;;;;41.42;23.35;;;;;;;;;;5049652;28;20473;-69
2022/01/22 15:57:45;;;;;;;37.30;20.02;;;;;;;;;;5052182;28;20033;-70
2022/01/22 16:00:12;;;;;;;32.15;18.85;;;;;;;;;;5052325;28;20025;-69
2022/01/22 16:02:38;;;;;;;29.67;17.42;;;;;;;;;;5051952;28;20167;-70
2022/01/22 16:05:05;;;;;;;31.75;16.92;;;;;;;;;;5050954;28;20453;-66
2022/01/22 16:07:32;;;;;;;31.85;17.25;;;;;;;;;;5055582;28;20110;-70
2022/01/22 16:10:00;;;;;;;26.42;14.60;;;;;;;;;;5054684;28;20033;-67
2022/01/22 16:12:28;;;;;;;27.90;15.40;;;;;;;;;;5056039;28;20056;-67
2022/01/22 16:14:55;;;;;;;28.75;15.63;;;;;;;;;;5055920;28;20021;-68
2022/01/22 16:17:27;;;;;;;26.00;14.38;;;;;;;;;;5055939;28;20079;-67
2022/01/22 16:19:53;;;;;;;;;;;;;;;;;;5056275;28;20048;-67
2022/01/22 16:22:22;;;;;;;193.52;67.30;;;;;;;;;;5054460;28;19912;-67
2022/01/22 16:24:48;;;;;;;168.05;58.47;;;;;;;;;;5055382;28;20024;-67
2022/01/22 16:27:14;;;;;;;195.13;72.68;;;;;;;;;;5054264;28;20128;-71
2022/01/22 16:29:41;;;;;;;160.68;64.80;;;;;;;;;;5054285;28;20061;-69
2022/01/22 16:32:07;;;;;;;88.90;47.88;;;;;;;;;;5055603;28;20029;-68
2022/01/22 16:34:37;;;;;;;105.22;53.63;;;;;;;;;;5058860;28;20068;-70